sensor_id;sensor_type;location;lat;lon;timestamp;P1;durP1;ratioP1;P2;durP2;ratioP2
579;SDS011;276;48.392;9.950;2024-03-29T00:00:24;7.47;;;5.93;;
579;SDS011;276;48.392;9.950;2024-03-29T00:02:50;6.77;;;5.80;;
579;SDS011;276;48.392;9.950;2024-03-29T00:05:16;6.53;;;5.50;;
579;SDS011;276;48.392;9.950;2024-03-29T00:07:44;6.87;;;6.17;;
579;SDS011;276;48.392;9.950;2024-03-29T00:10:15;7.47;;;5.20;;
579;SDS011;276;48.392;9.950;2024-03-29T00:12:40;5.90;;;5.33;;
579;SDS011;276;48.392;9.950;2024-03-29T00:15:11;6.10;;;5.50;;
579;SDS011;276;48.392;9.950;2024-03-29T00:17:36;7.10;;;5.80;;
579;SDS011;276;48.392;9.950;2024-03-29T00:20:07;8.77;;;5.23;;
579;SDS011;276;48.392;9.950;2024-03-29T00:22:33;5.97;;;5.27;;
579;SDS011;276;48.392;9.950;2024-03-29T00:24:59;7.77;;;5.23;;
579;SDS011;276;48.392;9.950;2024-03-29T00:27:27;4.60;;;4.20;;
579;SDS011;276;48.392;9.950;2024-03-29T00:29:56;4.83;;;4.00;;
579;SDS011;276;48.392;9.950;2024-03-29T00:32:22;4.80;;;4.37;;
579;SDS011;276;48.392;9.950;2024-03-29T00:34:49;4.63;;;4.23;;
579;SDS011;276;48.392;9.950;2024-03-29T00:37:15;4.97;;;4.57;;
579;SDS011;276;48.392;9.950;2024-03-29T00:39:44;4.23;;;3.90;;
579;SDS011;276;48.392;9.950;2024-03-29T00:42:10;8.43;;;4.40;;
579;SDS011;276;48.392;9.950;2024-03-29T00:44:41;6.07;;;5.10;;
579;SDS011;276;48.392;9.950;2024-03-29T00:47:09;5.90;;;5.10;;
579;SDS011;276;48.392;9.950;2024-03-29T00:49:37;6.40;;;4.73;;
579;SDS011;276;48.392;9.950;2024-03-29T00:52:08;6.20;;;4.13;;
579;SDS011;276;48.392;9.950;2024-03-29T00:54:36;5.30;;;4.87;;
579;SDS011;276;48.392;9.950;2024-03-29T00:57:04;5.33;;;4.83;;
579;SDS011;276;48.392;9.950;2024-03-29T00:59:34;5.23;;;4.43;;
579;SDS011;276;48.392;9.950;2024-03-29T01:01:59;4.97;;;4.43;;
579;SDS011;276;48.392;9.950;2024-03-29T01:04:27;5.97;;;4.10;;
579;SDS011;276;48.392;9.950;2024-03-29T01:06:55;5.87;;;4.20;;
579;SDS011;276;48.392;9.950;2024-03-29T01:09:26;3.80;;;3.43;;
579;SDS011;276;48.392;9.950;2024-03-29T01:11:51;5.30;;;3.90;;
579;SDS011;276;48.392;9.950;2024-03-29T01:14:19;3.83;;;3.47;;
579;SDS011;276;48.392;9.950;2024-03-29T01:16:45;3.00;;;2.80;;
579;SDS011;276;48.392;9.950;2024-03-29T01:19:10;3.60;;;3.30;;
579;SDS011;276;48.392;9.950;2024-03-29T01:21:36;4.20;;;3.80;;
579;SDS011;276;48.392;9.950;2024-03-29T01:24:04;4.13;;;3.20;;
579;SDS011;276;48.392;9.950;2024-03-29T01:26:30;5.07;;;3.50;;
579;SDS011;276;48.392;9.950;2024-03-29T01:28:56;3.93;;;3.63;;
579;SDS011;276;48.392;9.950;2024-03-29T01:31:22;4.17;;;3.57;;
579;SDS011;276;48.392;9.950;2024-03-29T01:33:50;3.27;;;2.97;;
579;SDS011;276;48.392;9.950;2024-03-29T01:36:16;3.60;;;3.30;;
579;SDS011;276;48.392;9.950;2024-03-29T01:38:44;3.33;;;3.03;;
579;SDS011;276;48.392;9.950;2024-03-29T01:41:13;5.40;;;2.83;;
579;SDS011;276;48.392;9.950;2024-03-29T01:43:39;2.97;;;2.77;;
579;SDS011;276;48.392;9.950;2024-03-29T01:46:04;2.53;;;2.33;;
579;SDS011;276;48.392;9.950;2024-03-29T01:48:36;3.23;;;2.93;;
579;SDS011;276;48.392;9.950;2024-03-29T01:51:04;2.67;;;2.43;;
579;SDS011;276;48.392;9.950;2024-03-29T01:53:32;2.47;;;2.27;;
579;SDS011;276;48.392;9.950;2024-03-29T01:55:58;2.83;;;2.63;;
579;SDS011;276;48.392;9.950;2024-03-29T01:58:27;2.57;;;2.37;;
579;SDS011;276;48.392;9.950;2024-03-29T02:00:59;2.47;;;2.27;;
579;SDS011;276;48.392;9.950;2024-03-29T02:03:26;4.03;;;3.40;;
579;SDS011;276;48.392;9.950;2024-03-29T02:05:54;2.70;;;2.23;;
579;SDS011;276;48.392;9.950;2024-03-29T02:08:22;4.77;;;3.00;;
579;SDS011;276;48.392;9.950;2024-03-29T02:10:50;2.63;;;2.30;;
579;SDS011;276;48.392;9.950;2024-03-29T02:13:18;2.17;;;1.83;;
579;SDS011;276;48.392;9.950;2024-03-29T02:15:44;2.77;;;2.57;;
579;SDS011;276;48.392;9.950;2024-03-29T02:18:10;5.30;;;4.20;;
579;SDS011;276;48.392;9.950;2024-03-29T02:20:35;2.37;;;2.17;;
579;SDS011;276;48.392;9.950;2024-03-29T02:25:34;2.27;;;2.07;;
579;SDS011;276;48.392;9.950;2024-03-29T02:28:03;2.60;;;2.23;;
579;SDS011;276;48.392;9.950;2024-03-29T02:30:31;1.80;;;1.70;;
579;SDS011;276;48.392;9.950;2024-03-29T02:32:57;1.90;;;1.80;;
579;SDS011;276;48.392;9.950;2024-03-29T02:35:23;1.60;;;1.50;;
579;SDS011;276;48.392;9.950;2024-03-29T02:37:49;2.20;;;1.87;;
579;SDS011;276;48.392;9.950;2024-03-29T02:40:15;2.83;;;2.40;;
579;SDS011;276;48.392;9.950;2024-03-29T02:42:44;2.50;;;2.30;;
579;SDS011;276;48.392;9.950;2024-03-29T02:45:09;2.50;;;2.10;;
579;SDS011;276;48.392;9.950;2024-03-29T02:47:35;3.67;;;2.83;;
579;SDS011;276;48.392;9.950;2024-03-29T02:50:00;2.90;;;2.10;;
579;SDS011;276;48.392;9.950;2024-03-29T02:52:26;2.20;;;2.00;;
579;SDS011;276;48.392;9.950;2024-03-29T02:54:53;2.20;;;2.00;;
579;SDS011;276;48.392;9.950;2024-03-29T02:57:19;2.53;;;1.90;;
579;SDS011;276;48.392;9.950;2024-03-29T02:59:47;2.20;;;1.90;;
579;SDS011;276;48.392;9.950;2024-03-29T03:02:15;2.30;;;1.67;;
579;SDS011;276;48.392;9.950;2024-03-29T03:04:40;3.03;;;2.00;;
579;SDS011;276;48.392;9.950;2024-03-29T03:07:08;2.37;;;2.17;;
579;SDS011;276;48.392;9.950;2024-03-29T03:09:53;2.27;;;1.97;;
579;SDS011;276;48.392;9.950;2024-03-29T03:12:37;2.57;;;2.33;;
579;SDS011;276;48.392;9.950;2024-03-29T03:15:03;1.83;;;1.63;;
579;SDS011;276;48.392;9.950;2024-03-29T03:17:31;2.10;;;1.90;;
579;SDS011;276;48.392;9.950;2024-03-29T03:19:56;2.00;;;1.80;;
579;SDS011;276;48.392;9.950;2024-03-29T03:22:22;2.60;;;1.70;;
579;SDS011;276;48.392;9.950;2024-03-29T03:24:50;1.77;;;1.60;;
579;SDS011;276;48.392;9.950;2024-03-29T03:27:18;1.83;;;1.50;;
579;SDS011;276;48.392;9.950;2024-03-29T03:29:44;2.53;;;1.67;;
579;SDS011;276;48.392;9.950;2024-03-29T03:32:09;1.83;;;1.67;;
579;SDS011;276;48.392;9.950;2024-03-29T03:34:37;1.60;;;1.43;;
579;SDS011;276;48.392;9.950;2024-03-29T03:37:03;2.20;;;2.00;;
579;SDS011;276;48.392;9.950;2024-03-29T03:39:29;1.70;;;1.60;;
579;SDS011;276;48.392;9.950;2024-03-29T03:41:57;1.60;;;1.33;;
579;SDS011;276;48.392;9.950;2024-03-29T03:44:22;1.73;;;1.30;;
579;SDS011;276;48.392;9.950;2024-03-29T03:46:50;2.17;;;1.63;;
579;SDS011;276;48.392;9.950;2024-03-29T03:49:16;1.47;;;1.37;;
579;SDS011;276;48.392;9.950;2024-03-29T03:51:41;2.00;;;1.90;;
579;SDS011;276;48.392;9.950;2024-03-29T03:54:12;1.63;;;1.53;;
579;SDS011;276;48.392;9.950;2024-03-29T03:56:37;1.70;;;1.60;;
579;SDS011;276;48.392;9.950;2024-03-29T03:59:03;1.77;;;1.30;;
579;SDS011;276;48.392;9.950;2024-03-29T04:01:31;1.67;;;1.20;;
579;SDS011;276;48.392;9.950;2024-03-29T04:03:59;1.83;;;1.67;;
579;SDS011;276;48.392;9.950;2024-03-29T04:06:24;1.27;;;1.17;;
579;SDS011;276;48.392;9.950;2024-03-29T04:08:52;1.60;;;1.50;;
579;SDS011;276;48.392;9.950;2024-03-29T04:11:18;1.50;;;1.40;;
579;SDS011;276;48.392;9.950;2024-03-29T04:13:45;1.60;;;1.47;;
579;SDS011;276;48.392;9.950;2024-03-29T04:16:11;3.10;;;1.87;;
579;SDS011;276;48.392;9.950;2024-03-29T04:18:37;2.33;;;2.10;;
579;SDS011;276;48.392;9.950;2024-03-29T04:21:05;2.17;;;2.00;;
579;SDS011;276;48.392;9.950;2024-03-29T04:23:31;2.40;;;1.67;;
579;SDS011;276;48.392;9.950;2024-03-29T04:25:57;1.23;;;1.13;;
579;SDS011;276;48.392;9.950;2024-03-29T04:28:24;1.83;;;1.57;;
579;SDS011;276;48.392;9.950;2024-03-29T04:33:22;1.87;;;1.77;;
579;SDS011;276;48.392;9.950;2024-03-29T04:35:55;2.70;;;1.60;;
579;SDS011;276;48.392;9.950;2024-03-29T04:38:21;4.67;;;1.80;;
579;SDS011;276;48.392;9.950;2024-03-29T04:40:47;2.00;;;1.60;;
579;SDS011;276;48.392;9.950;2024-03-29T04:43:17;1.80;;;1.63;;
579;SDS011;276;48.392;9.950;2024-03-29T04:45:44;2.73;;;1.90;;
579;SDS011;276;48.392;9.950;2024-03-29T04:48:10;2.97;;;1.83;;
579;SDS011;276;48.392;9.950;2024-03-29T04:50:38;1.77;;;1.67;;
579;SDS011;276;48.392;9.950;2024-03-29T04:53:07;3.10;;;2.00;;
579;SDS011;276;48.392;9.950;2024-03-29T04:55:35;1.67;;;1.50;;
579;SDS011;276;48.392;9.950;2024-03-29T04:58:06;2.03;;;1.93;;
579;SDS011;276;48.392;9.950;2024-03-29T05:00:32;2.20;;;2.00;;
579;SDS011;276;48.392;9.950;2024-03-29T05:03:00;2.00;;;1.80;;
579;SDS011;276;48.392;9.950;2024-03-29T05:05:25;1.47;;;1.37;;
579;SDS011;276;48.392;9.950;2024-03-29T05:07:53;1.60;;;1.50;;
579;SDS011;276;48.392;9.950;2024-03-29T05:10:19;2.27;;;1.93;;
579;SDS011;276;48.392;9.950;2024-03-29T05:12:51;2.20;;;1.90;;
579;SDS011;276;48.392;9.950;2024-03-29T05:15:19;4.03;;;1.90;;
579;SDS011;276;48.392;9.950;2024-03-29T05:17:52;2.13;;;1.93;;
579;SDS011;276;48.392;9.950;2024-03-29T05:20:18;3.70;;;3.00;;
579;SDS011;276;48.392;9.950;2024-03-29T05:22:44;1.70;;;1.60;;
579;SDS011;276;48.392;9.950;2024-03-29T05:25:12;2.57;;;2.37;;
579;SDS011;276;48.392;9.950;2024-03-29T05:27:37;2.03;;;1.90;;
579;SDS011;276;48.392;9.950;2024-03-29T05:30:03;2.30;;;2.10;;
579;SDS011;276;48.392;9.950;2024-03-29T05:32:34;3.10;;;2.70;;
579;SDS011;276;48.392;9.950;2024-03-29T05:35:00;2.63;;;2.00;;
579;SDS011;276;48.392;9.950;2024-03-29T05:37:28;2.00;;;1.90;;
579;SDS011;276;48.392;9.950;2024-03-29T05:39:56;2.80;;;2.60;;
579;SDS011;276;48.392;9.950;2024-03-29T05:42:25;3.40;;;2.80;;
579;SDS011;276;48.392;9.950;2024-03-29T05:44:57;4.33;;;2.83;;
579;SDS011;276;48.392;9.950;2024-03-29T05:47:23;3.70;;;3.00;;
579;SDS011;276;48.392;9.950;2024-03-29T05:49:51;3.00;;;2.63;;
579;SDS011;276;48.392;9.950;2024-03-29T05:52:19;4.23;;;3.17;;
579;SDS011;276;48.392;9.950;2024-03-29T05:54:48;3.57;;;3.23;;
579;SDS011;276;48.392;9.950;2024-03-29T05:57:13;3.73;;;3.33;;
579;SDS011;276;48.392;9.950;2024-03-29T05:59:39;2.60;;;2.40;;
579;SDS011;276;48.392;9.950;2024-03-29T06:02:05;3.33;;;2.80;;
579;SDS011;276;48.392;9.950;2024-03-29T06:04:30;6.40;;;2.57;;
579;SDS011;276;48.392;9.950;2024-03-29T06:07:00;2.10;;;2.00;;
579;SDS011;276;48.392;9.950;2024-03-29T06:09:27;4.10;;;3.20;;
579;SDS011;276;48.392;9.950;2024-03-29T06:11:54;2.83;;;2.63;;
579;SDS011;276;48.392;9.950;2024-03-29T06:14:20;2.47;;;2.27;;
579;SDS011;276;48.392;9.950;2024-03-29T06:17:05;2.80;;;2.60;;
579;SDS011;276;48.392;9.950;2024-03-29T06:19:49;3.73;;;2.27;;
579;SDS011;276;48.392;9.950;2024-03-29T06:22:16;3.60;;;2.90;;
579;SDS011;276;48.392;9.950;2024-03-29T06:24:44;9.60;;;4.00;;
579;SDS011;276;48.392;9.950;2024-03-29T06:27:10;3.97;;;3.67;;
579;SDS011;276;48.392;9.950;2024-03-29T06:29:42;3.87;;;3.57;;
579;SDS011;276;48.392;9.950;2024-03-29T06:32:08;2.83;;;2.63;;
579;SDS011;276;48.392;9.950;2024-03-29T06:34:34;3.50;;;3.20;;
579;SDS011;276;48.392;9.950;2024-03-29T06:37:02;3.07;;;2.87;;
579;SDS011;276;48.392;9.950;2024-03-29T06:39:30;2.27;;;2.07;;
579;SDS011;276;48.392;9.950;2024-03-29T06:41:56;2.77;;;2.57;;
579;SDS011;276;48.392;9.950;2024-03-29T06:44:24;2.30;;;2.10;;
579;SDS011;276;48.392;9.950;2024-03-29T06:46:52;3.17;;;1.80;;
579;SDS011;276;48.392;9.950;2024-03-29T06:49:17;2.40;;;2.17;;
579;SDS011;276;48.392;9.950;2024-03-29T06:51:46;2.20;;;2.10;;
579;SDS011;276;48.392;9.950;2024-03-29T06:54:13;3.27;;;2.37;;
579;SDS011;276;48.392;9.950;2024-03-29T06:56:39;5.37;;;2.83;;
579;SDS011;276;48.392;9.950;2024-03-29T06:59:05;3.27;;;2.93;;
579;SDS011;276;48.392;9.950;2024-03-29T07:01:35;3.33;;;3.13;;
579;SDS011;276;48.392;9.950;2024-03-29T07:04:01;5.13;;;3.27;;
579;SDS011;276;48.392;9.950;2024-03-29T07:06:27;3.33;;;3.03;;
579;SDS011;276;48.392;9.950;2024-03-29T07:08:55;2.93;;;2.43;;
579;SDS011;276;48.392;9.950;2024-03-29T07:11:20;4.43;;;4.00;;
579;SDS011;276;48.392;9.950;2024-03-29T07:13:46;2.30;;;2.10;;
579;SDS011;276;48.392;9.950;2024-03-29T07:16:14;2.60;;;2.40;;
579;SDS011;276;48.392;9.950;2024-03-29T07:18:41;3.53;;;3.23;;
579;SDS011;276;48.392;9.950;2024-03-29T07:21:09;3.60;;;3.00;;
579;SDS011;276;48.392;9.950;2024-03-29T07:23:35;3.70;;;3.17;;
579;SDS011;276;48.392;9.950;2024-03-29T07:26:03;6.40;;;5.07;;
579;SDS011;276;48.392;9.950;2024-03-29T07:28:30;5.07;;;3.87;;
579;SDS011;276;48.392;9.950;2024-03-29T07:30:56;3.77;;;3.47;;
579;SDS011;276;48.392;9.950;2024-03-29T07:33:31;2.87;;;2.67;;
579;SDS011;276;48.392;9.950;2024-03-29T07:35:59;3.77;;;3.23;;
579;SDS011;276;48.392;9.950;2024-03-29T07:38:29;2.97;;;2.77;;
579;SDS011;276;48.392;9.950;2024-03-29T07:41:00;1.83;;;1.73;;
579;SDS011;276;48.392;9.950;2024-03-29T07:43:36;1.70;;;1.43;;
579;SDS011;276;48.392;9.950;2024-03-29T07:46:04;2.20;;;2.00;;
579;SDS011;276;48.392;9.950;2024-03-29T07:48:33;2.37;;;2.17;;
579;SDS011;276;48.392;9.950;2024-03-29T07:51:02;2.17;;;1.97;;
579;SDS011;276;48.392;9.950;2024-03-29T07:53:28;1.60;;;1.50;;
579;SDS011;276;48.392;9.950;2024-03-29T07:55:53;1.90;;;1.80;;
579;SDS011;276;48.392;9.950;2024-03-29T07:58:20;2.50;;;2.30;;
579;SDS011;276;48.392;9.950;2024-03-29T08:00:45;1.70;;;1.50;;
579;SDS011;276;48.392;9.950;2024-03-29T08:03:14;4.73;;;1.60;;
579;SDS011;276;48.392;9.950;2024-03-29T08:05:40;1.70;;;1.60;;
579;SDS011;276;48.392;9.950;2024-03-29T08:08:07;1.43;;;1.33;;
579;SDS011;276;48.392;9.950;2024-03-29T08:10:35;2.50;;;1.43;;
579;SDS011;276;48.392;9.950;2024-03-29T08:13:01;2.00;;;1.13;;
579;SDS011;276;48.392;9.950;2024-03-29T08:15:27;1.23;;;1.17;;
579;SDS011;276;48.392;9.950;2024-03-29T08:17:54;1.40;;;1.30;;
579;SDS011;276;48.392;9.950;2024-03-29T08:20:20;1.47;;;1.33;;
579;SDS011;276;48.392;9.950;2024-03-29T08:22:48;2.10;;;1.70;;
579;SDS011;276;48.392;9.950;2024-03-29T08:25:13;1.50;;;1.40;;
579;SDS011;276;48.392;9.950;2024-03-29T08:27:39;4.00;;;1.90;;
579;SDS011;276;48.392;9.950;2024-03-29T08:30:05;1.20;;;1.10;;
579;SDS011;276;48.392;9.950;2024-03-29T08:32:31;1.20;;;1.10;;
579;SDS011;276;48.392;9.950;2024-03-29T08:34:59;2.10;;;1.90;;
579;SDS011;276;48.392;9.950;2024-03-29T08:37:27;2.23;;;1.60;;
579;SDS011;276;48.392;9.950;2024-03-29T08:39:52;1.73;;;1.63;;
579;SDS011;276;48.392;9.950;2024-03-29T08:42:18;1.33;;;1.23;;
579;SDS011;276;48.392;9.950;2024-03-29T08:44:48;1.80;;;1.70;;
579;SDS011;276;48.392;9.950;2024-03-29T08:47:14;1.70;;;1.20;;
579;SDS011;276;48.392;9.950;2024-03-29T08:49:42;1.50;;;1.40;;
579;SDS011;276;48.392;9.950;2024-03-29T08:52:07;3.73;;;1.63;;
579;SDS011;276;48.392;9.950;2024-03-29T08:54:33;1.97;;;1.67;;
579;SDS011;276;48.392;9.950;2024-03-29T08:56:58;3.23;;;1.17;;
579;SDS011;276;48.392;9.950;2024-03-29T08:59:26;1.20;;;1.10;;
579;SDS011;276;48.392;9.950;2024-03-29T09:01:55;1.43;;;1.33;;
579;SDS011;276;48.392;9.950;2024-03-29T09:04:29;1.40;;;1.30;;
579;SDS011;276;48.392;9.950;2024-03-29T09:06:54;2.13;;;1.93;;
579;SDS011;276;48.392;9.950;2024-03-29T09:09:22;1.90;;;1.80;;
579;SDS011;276;48.392;9.950;2024-03-29T09:11:50;1.70;;;1.60;;
579;SDS011;276;48.392;9.950;2024-03-29T09:14:16;2.10;;;1.37;;
579;SDS011;276;48.392;9.950;2024-03-29T09:16:41;1.00;;;1.00;;
579;SDS011;276;48.392;9.950;2024-03-29T09:19:07;1.70;;;1.60;;
579;SDS011;276;48.392;9.950;2024-03-29T09:21:33;1.50;;;1.40;;
579;SDS011;276;48.392;9.950;2024-03-29T09:24:03;1.67;;;1.40;;
579;SDS011;276;48.392;9.950;2024-03-29T09:26:32;2.53;;;1.70;;
579;SDS011;276;48.392;9.950;2024-03-29T09:28:58;1.40;;;1.30;;
579;SDS011;276;48.392;9.950;2024-03-29T09:31:26;1.40;;;1.30;;
579;SDS011;276;48.392;9.950;2024-03-29T09:33:52;2.07;;;1.40;;
579;SDS011;276;48.392;9.950;2024-03-29T09:36:22;2.37;;;1.80;;
579;SDS011;276;48.392;9.950;2024-03-29T09:38:49;1.60;;;1.50;;
579;SDS011;276;48.392;9.950;2024-03-29T09:41:16;1.53;;;1.43;;
579;SDS011;276;48.392;9.950;2024-03-29T09:43:44;2.07;;;1.90;;
579;SDS011;276;48.392;9.950;2024-03-29T09:46:10;2.47;;;2.27;;
579;SDS011;276;48.392;9.950;2024-03-29T09:48:43;2.03;;;1.93;;
579;SDS011;276;48.392;9.950;2024-03-29T09:51:14;1.80;;;1.70;;
579;SDS011;276;48.392;9.950;2024-03-29T09:53:43;2.50;;;1.50;;
579;SDS011;276;48.392;9.950;2024-03-29T09:56:09;1.60;;;1.50;;
579;SDS011;276;48.392;9.950;2024-03-29T09:58:35;1.57;;;1.47;;
579;SDS011;276;48.392;9.950;2024-03-29T10:01:02;2.40;;;1.57;;
579;SDS011;276;48.392;9.950;2024-03-29T10:03:32;2.00;;;1.80;;
579;SDS011;276;48.392;9.950;2024-03-29T10:06:01;2.20;;;1.77;;
579;SDS011;276;48.392;9.950;2024-03-29T10:08:29;1.70;;;1.60;;
579;SDS011;276;48.392;9.950;2024-03-29T10:10:56;1.90;;;1.80;;
579;SDS011;276;48.392;9.950;2024-03-29T10:13:22;2.27;;;2.00;;
579;SDS011;276;48.392;9.950;2024-03-29T10:15:49;2.53;;;2.33;;
579;SDS011;276;48.392;9.950;2024-03-29T10:18:18;2.10;;;1.90;;
579;SDS011;276;48.392;9.950;2024-03-29T10:20:57;2.43;;;1.73;;
579;SDS011;276;48.392;9.950;2024-03-29T10:23:33;2.37;;;1.60;;
579;SDS011;276;48.392;9.950;2024-03-29T10:26:02;2.20;;;1.40;;
579;SDS011;276;48.392;9.950;2024-03-29T10:28:35;2.80;;;1.90;;
579;SDS011;276;48.392;9.950;2024-03-29T10:31:04;2.87;;;1.90;;
579;SDS011;276;48.392;9.950;2024-03-29T10:33:31;1.57;;;1.43;;
579;SDS011;276;48.392;9.950;2024-03-29T10:36:02;2.17;;;2.00;;
579;SDS011;276;48.392;9.950;2024-03-29T10:38:32;1.80;;;1.70;;
579;SDS011;276;48.392;9.950;2024-03-29T10:41:01;1.60;;;1.50;;
579;SDS011;276;48.392;9.950;2024-03-29T10:43:28;2.30;;;2.10;;
579;SDS011;276;48.392;9.950;2024-03-29T10:45:55;2.53;;;2.00;;
579;SDS011;276;48.392;9.950;2024-03-29T10:48:25;1.83;;;1.73;;
579;SDS011;276;48.392;9.950;2024-03-29T10:50:53;2.43;;;2.23;;
579;SDS011;276;48.392;9.950;2024-03-29T10:53:19;3.13;;;2.93;;
579;SDS011;276;48.392;9.950;2024-03-29T10:55:47;3.97;;;3.67;;
579;SDS011;276;48.392;9.950;2024-03-29T10:58:18;2.60;;;2.40;;
579;SDS011;276;48.392;9.950;2024-03-29T11:00:49;3.03;;;2.80;;
579;SDS011;276;48.392;9.950;2024-03-29T11:03:25;3.07;;;2.77;;
579;SDS011;276;48.392;9.950;2024-03-29T11:05:58;2.83;;;2.30;;
579;SDS011;276;48.392;9.950;2024-03-29T11:08:28;4.13;;;3.77;;
579;SDS011;276;48.392;9.950;2024-03-29T11:11:03;2.70;;;2.23;;
579;SDS011;276;48.392;9.950;2024-03-29T11:16:14;4.17;;;3.30;;
579;SDS011;276;48.392;9.950;2024-03-29T11:18:45;2.57;;;2.37;;
579;SDS011;276;48.392;9.950;2024-03-29T11:21:12;2.90;;;2.50;;
579;SDS011;276;48.392;9.950;2024-03-29T11:23:47;3.20;;;2.90;;
579;SDS011;276;48.392;9.950;2024-03-29T11:26:18;2.50;;;2.40;;
579;SDS011;276;48.392;9.950;2024-03-29T11:28:51;3.93;;;3.63;;
579;SDS011;276;48.392;9.950;2024-03-29T11:31:24;2.90;;;2.60;;
579;SDS011;276;48.392;9.950;2024-03-29T11:33:50;2.70;;;2.50;;
579;SDS011;276;48.392;9.950;2024-03-29T11:36:23;2.93;;;2.60;;
579;SDS011;276;48.392;9.950;2024-03-29T11:38:53;2.90;;;2.70;;
579;SDS011;276;48.392;9.950;2024-03-29T11:41:24;2.53;;;2.33;;
579;SDS011;276;48.392;9.950;2024-03-29T11:43:52;2.20;;;2.00;;
579;SDS011;276;48.392;9.950;2024-03-29T11:46:18;2.00;;;1.80;;
579;SDS011;276;48.392;9.950;2024-03-29T11:48:45;2.70;;;1.77;;
579;SDS011;276;48.392;9.950;2024-03-29T11:51:14;2.57;;;2.47;;
579;SDS011;276;48.392;9.950;2024-03-29T11:53:45;4.73;;;2.27;;
579;SDS011;276;48.392;9.950;2024-03-29T11:56:13;1.80;;;1.70;;
579;SDS011;276;48.392;9.950;2024-03-29T11:58:41;2.40;;;2.30;;
579;SDS011;276;48.392;9.950;2024-03-29T12:01:10;2.47;;;2.20;;
579;SDS011;276;48.392;9.950;2024-03-29T12:03:40;2.70;;;2.03;;
579;SDS011;276;48.392;9.950;2024-03-29T12:06:07;2.30;;;2.10;;
579;SDS011;276;48.392;9.950;2024-03-29T12:08:34;3.43;;;3.13;;
579;SDS011;276;48.392;9.950;2024-03-29T12:11:02;3.50;;;3.20;;
579;SDS011;276;48.392;9.950;2024-03-29T12:13:30;2.27;;;2.07;;
579;SDS011;276;48.392;9.950;2024-03-29T12:15:56;3.10;;;2.90;;
579;SDS011;276;48.392;9.950;2024-03-29T12:18:23;2.73;;;2.53;;
579;SDS011;276;48.392;9.950;2024-03-29T12:20:50;2.30;;;2.10;;
579;SDS011;276;48.392;9.950;2024-03-29T12:23:17;3.33;;;3.03;;
579;SDS011;276;48.392;9.950;2024-03-29T12:25:47;2.37;;;2.17;;
579;SDS011;276;48.392;9.950;2024-03-29T12:28:14;2.47;;;2.27;;
579;SDS011;276;48.392;9.950;2024-03-29T12:30:41;2.90;;;2.70;;
579;SDS011;276;48.392;9.950;2024-03-29T12:33:13;2.60;;;2.40;;
579;SDS011;276;48.392;9.950;2024-03-29T12:35:45;2.40;;;2.20;;
579;SDS011;276;48.392;9.950;2024-03-29T12:38:15;3.10;;;2.90;;
579;SDS011;276;48.392;9.950;2024-03-29T12:40:46;2.83;;;2.63;;
579;SDS011;276;48.392;9.950;2024-03-29T12:43:13;4.87;;;2.57;;
579;SDS011;276;48.392;9.950;2024-03-29T12:45:42;2.63;;;2.43;;
579;SDS011;276;48.392;9.950;2024-03-29T12:50:40;2.50;;;2.30;;
579;SDS011;276;48.392;9.950;2024-03-29T12:53:09;2.47;;;2.30;;
579;SDS011;276;48.392;9.950;2024-03-29T12:55:39;3.43;;;3.00;;
579;SDS011;276;48.392;9.950;2024-03-29T12:58:12;2.67;;;2.50;;
579;SDS011;276;48.392;9.950;2024-03-29T13:00:42;3.53;;;2.30;;
579;SDS011;276;48.392;9.950;2024-03-29T13:03:08;3.00;;;2.50;;
579;SDS011;276;48.392;9.950;2024-03-29T13:05:37;3.23;;;2.77;;
579;SDS011;276;48.392;9.950;2024-03-29T13:08:10;3.70;;;2.50;;
579;SDS011;276;48.392;9.950;2024-03-29T13:10:37;2.10;;;1.73;;
579;SDS011;276;48.392;9.950;2024-03-29T13:13:06;1.97;;;1.87;;
579;SDS011;276;48.392;9.950;2024-03-29T13:15:35;1.60;;;1.50;;
579;SDS011;276;48.392;9.950;2024-03-29T13:18:02;2.87;;;2.60;;
579;SDS011;276;48.392;9.950;2024-03-29T13:20:29;4.73;;;2.73;;
579;SDS011;276;48.392;9.950;2024-03-29T13:22:59;1.80;;;1.70;;
579;SDS011;276;48.392;9.950;2024-03-29T13:25:24;1.80;;;1.60;;
579;SDS011;276;48.392;9.950;2024-03-29T13:27:53;1.60;;;1.50;;
579;SDS011;276;48.392;9.950;2024-03-29T13:30:24;1.67;;;1.57;;
579;SDS011;276;48.392;9.950;2024-03-29T13:32:53;2.07;;;1.87;;
579;SDS011;276;48.392;9.950;2024-03-29T13:35:19;2.67;;;2.47;;
579;SDS011;276;48.392;9.950;2024-03-29T13:37:46;2.37;;;2.17;;
579;SDS011;276;48.392;9.950;2024-03-29T13:40:18;2.13;;;1.93;;
579;SDS011;276;48.392;9.950;2024-03-29T13:42:46;3.53;;;2.20;;
579;SDS011;276;48.392;9.950;2024-03-29T13:45:14;1.60;;;1.50;;
579;SDS011;276;48.392;9.950;2024-03-29T13:47:40;3.63;;;1.87;;
579;SDS011;276;48.392;9.950;2024-03-29T13:50:07;1.90;;;1.33;;
579;SDS011;276;48.392;9.950;2024-03-29T13:52:34;1.63;;;1.53;;
579;SDS011;276;48.392;9.950;2024-03-29T13:55:00;1.50;;;1.40;;
579;SDS011;276;48.392;9.950;2024-03-29T13:57:30;1.47;;;1.33;;
579;SDS011;276;48.392;9.950;2024-03-29T13:59:56;2.07;;;1.83;;
579;SDS011;276;48.392;9.950;2024-03-29T14:02:23;1.70;;;1.40;;
579;SDS011;276;48.392;9.950;2024-03-29T14:04:51;2.00;;;1.53;;
579;SDS011;276;48.392;9.950;2024-03-29T14:07:19;1.57;;;1.47;;
579;SDS011;276;48.392;9.950;2024-03-29T14:09:46;1.53;;;1.43;;
579;SDS011;276;48.392;9.950;2024-03-29T14:12:12;1.93;;;1.47;;
579;SDS011;276;48.392;9.950;2024-03-29T14:14:39;1.57;;;1.47;;
579;SDS011;276;48.392;9.950;2024-03-29T14:17:06;1.50;;;1.40;;
579;SDS011;276;48.392;9.950;2024-03-29T14:19:34;1.80;;;1.70;;
579;SDS011;276;48.392;9.950;2024-03-29T14:22:02;1.67;;;1.50;;
579;SDS011;276;48.392;9.950;2024-03-29T14:24:29;1.87;;;1.40;;
579;SDS011;276;48.392;9.950;2024-03-29T14:26:56;1.90;;;1.80;;
579;SDS011;276;48.392;9.950;2024-03-29T14:29:22;1.50;;;1.40;;
579;SDS011;276;48.392;9.950;2024-03-29T14:31:51;1.90;;;1.80;;
579;SDS011;276;48.392;9.950;2024-03-29T14:34:20;1.93;;;1.73;;
579;SDS011;276;48.392;9.950;2024-03-29T14:36:46;2.40;;;1.90;;
579;SDS011;276;48.392;9.950;2024-03-29T14:39:16;2.40;;;1.83;;
579;SDS011;276;48.392;9.950;2024-03-29T14:41:44;2.37;;;1.67;;
579;SDS011;276;48.392;9.950;2024-03-29T14:44:11;1.70;;;1.60;;
579;SDS011;276;48.392;9.950;2024-03-29T14:46:37;4.10;;;2.73;;
579;SDS011;276;48.392;9.950;2024-03-29T14:49:05;3.00;;;1.43;;
579;SDS011;276;48.392;9.950;2024-03-29T14:51:36;2.27;;;2.10;;
579;SDS011;276;48.392;9.950;2024-03-29T14:54:06;2.30;;;1.63;;
579;SDS011;276;48.392;9.950;2024-03-29T14:56:35;1.73;;;1.63;;
579;SDS011;276;48.392;9.950;2024-03-29T14:59:02;1.80;;;1.70;;
579;SDS011;276;48.392;9.950;2024-03-29T15:01:34;1.90;;;1.80;;
579;SDS011;276;48.392;9.950;2024-03-29T15:04:00;3.13;;;2.73;;
579;SDS011;276;48.392;9.950;2024-03-29T15:06:26;2.17;;;2.07;;
579;SDS011;276;48.392;9.950;2024-03-29T15:08:52;2.60;;;2.00;;
579;SDS011;276;48.392;9.950;2024-03-29T15:11:19;2.00;;;1.80;;
579;SDS011;276;48.392;9.950;2024-03-29T15:13:44;1.43;;;1.33;;
579;SDS011;276;48.392;9.950;2024-03-29T15:16:10;1.87;;;1.77;;
579;SDS011;276;48.392;9.950;2024-03-29T15:18:36;2.70;;;2.50;;
579;SDS011;276;48.392;9.950;2024-03-29T15:21:03;1.77;;;1.67;;
579;SDS011;276;48.392;9.950;2024-03-29T15:23:34;1.90;;;1.80;;
579;SDS011;276;48.392;9.950;2024-03-29T15:26:02;1.90;;;1.80;;
579;SDS011;276;48.392;9.950;2024-03-29T15:28:33;2.43;;;2.07;;
579;SDS011;276;48.392;9.950;2024-03-29T15:31:18;1.90;;;1.70;;
579;SDS011;276;48.392;9.950;2024-03-29T15:33:46;2.60;;;2.20;;
579;SDS011;276;48.392;9.950;2024-03-29T15:36:18;1.83;;;1.73;;
579;SDS011;276;48.392;9.950;2024-03-29T15:38:46;2.00;;;1.80;;
579;SDS011;276;48.392;9.950;2024-03-29T15:41:16;2.30;;;2.10;;
579;SDS011;276;48.392;9.950;2024-03-29T15:43:42;1.90;;;1.80;;
579;SDS011;276;48.392;9.950;2024-03-29T15:46:10;6.80;;;2.33;;
579;SDS011;276;48.392;9.950;2024-03-29T15:48:38;2.20;;;2.00;;
579;SDS011;276;48.392;9.950;2024-03-29T15:51:06;2.30;;;2.10;;
579;SDS011;276;48.392;9.950;2024-03-29T15:53:36;1.83;;;1.63;;
579;SDS011;276;48.392;9.950;2024-03-29T15:56:04;2.47;;;2.37;;
579;SDS011;276;48.392;9.950;2024-03-29T15:58:30;1.87;;;1.77;;